Charlack, Missouri
Current Conditions -  °F | °C
As of 8:51 AM on Monday 24 Nov 2014 (Local Time) from KSTL Reporting Station
Overcast Overcast  
Wind Chill: -2°   Ceiling: 2300
Heat Index:   Visibility: 10mi
Dew Point: -2°   Wind: 22mph
Humidity: 67%   Direction: 270°W
Pressure: 29.61"   Gusts: 36mph
Location:  38.702°N, 90.3628°W
Report Text: KSTL 241451Z 27019G31KT 10SM BKN023 OVC030 04/M02 A2961 RMK AO2 PK WND 26033/1437 PRESRR SLP029 T00391017 53054
Loading
Personal Weather Stations






























Interactive Weather Map New forecast layout! Learn more

10-Day Weather Forecast

Advertisements
Track Severe Weather on mobile